Time;durP1;ratioP1;P1;durP2;ratioP2;P2;SDS_P1;SDS_P2;PMS_P1;PMS_P2;Temp;Humidity;BMP_temperature;BMP_pressure;BME280_temperature;BME280_humidity;BME280_pressure;Samples;Min_cycle;Max_cycle;Signal;HPM_P1;HPM_P2
2021/05/23 00:02:04;;;;;;;23.92;20.77;;;;;;;;;;4969585;28;36326;-78
2021/05/23 00:04:31;;;;;;;20.45;17.75;;;;;;;;;;4977790;28;40913;-78
2021/05/23 00:06:57;;;;;;;20.13;18.13;;;;;;;;;;4991876;28;38742;-79
2021/05/23 00:09:23;;;;;;;20.93;18.60;;;;;;;;;;4975406;28;38998;-78
2021/05/23 00:11:50;;;;;;;23.35;20.50;;;;;;;;;;4992079;28;38491;-79
2021/05/23 00:14:17;;;;;;;20.55;18.27;;;;;;;;;;4973677;28;39223;-79
2021/05/23 00:16:44;;;;;;;19.90;17.80;;;;;;;;;;4991618;28;38967;-79
2021/05/23 00:19:10;;;;;;;21.50;19.27;;;;;;;;;;4973921;28;39482;-79
2021/05/23 00:21:37;;;;;;;21.27;18.97;;;;;;;;;;5009250;28;38806;-79
2021/05/23 00:24:04;;;;;;;20.40;18.20;;;;;;;;;;4993472;28;39118;-78
2021/05/23 00:26:30;;;;;;;30.30;23.77;;;;;;;;;;4993470;28;38008;-78
2021/05/23 00:28:57;;;;;;;25.58;20.35;;;;;;;;;;4995235;28;38716;-79
2021/05/23 00:31:23;;;;;;;19.58;17.58;;;;;;;;;;5011485;28;37375;-79
2021/05/23 00:33:49;;;;;;;19.17;17.13;;;;;;;;;;5012457;28;39094;-78
2021/05/23 00:36:16;;;;;;;18.73;16.85;;;;;;;;;;5006499;28;40156;-79
2021/05/23 00:38:44;;;;;;;25.95;21.40;;;;;;;;;;4993665;28;39953;-79
2021/05/23 00:41:11;;;;;;;21.05;18.85;;;;;;;;;;4989706;28;37784;-78
2021/05/23 00:43:38;;;;;;;19.30;16.75;;;;;;;;;;5010953;28;39288;-79
2021/05/23 00:46:04;;;;;;;19.17;17.23;;;;;;;;;;5010920;28;39994;-78
2021/05/23 00:48:31;;;;;;;20.05;17.98;;;;;;;;;;5009105;28;38275;-78
2021/05/23 00:50:57;;;;;;;19.17;17.02;;;;;;;;;;4974794;28;37632;-78
2021/05/23 00:53:24;;;;;;;24.63;20.80;;;;;;;;;;4999326;28;39970;-78
2021/05/23 00:55:50;;;;;;;22.17;19.75;;;;;;;;;;5010246;28;39534;-79
2021/05/23 00:58:18;;;;;;;20.02;18.02;;;;;;;;;;5010766;28;39637;-78
2021/05/23 01:00:45;;;;;;;21.77;18.23;;;;;;;;;;5010366;28;38999;-78
2021/05/23 01:03:29;;;;;;;20.35;17.98;;;;;;;;;;5007265;28;39900;-78
2021/05/23 01:05:56;;;;;;;22.92;19.23;;;;;;;;;;5009371;28;39124;-78
2021/05/23 01:08:23;;;;;;;21.33;19.05;;;;;;;;;;5009720;28;37380;-78
2021/05/23 01:11:10;;;;;;;23.70;19.20;;;;;;;;;;5009431;28;37247;-78
2021/05/23 01:13:37;;;;;;;21.55;19.13;;;;;;;;;;5004602;28;47382;-78
2021/05/23 01:16:09;;;;;;;24.23;21.23;;;;;;;;;;5009771;28;39334;-78
2021/05/23 01:18:42;;;;;;;23.88;20.60;;;;;;;;;;5011331;28;38508;-78
2021/05/23 01:21:08;;;;;;;;;;;;;;;;;;5027159;28;37859;-78
2021/05/23 01:23:36;;;;;;;24.33;20.40;;;;;;;;;;5014577;28;41023;-79
2021/05/23 01:26:06;;;;;;;24.07;21.57;;;;;;;;;;5013767;28;38097;-77
2021/05/23 01:28:35;;;;;;;28.42;21.20;;;;;;;;;;4999440;28;39629;-78
2021/05/23 01:31:05;;;;;;;23.88;21.27;;;;;;;;;;4992993;28;38680;-78
2021/05/23 01:33:31;;;;;;;25.08;22.38;;;;;;;;;;4994163;28;47074;-79
2021/05/23 01:35:59;;;;;;;27.65;21.92;;;;;;;;;;5011896;28;39135;-78
2021/05/23 01:38:26;;;;;;;29.42;23.40;;;;;;;;;;4993678;28;39153;-79
2021/05/23 01:40:54;;;;;;;30.75;24.88;;;;;;;;;;5011361;28;37368;-78
2021/05/23 01:43:21;;;;;;;25.38;22.58;;;;;;;;;;4991218;28;37587;-78
2021/05/23 01:45:47;;;;;;;25.00;21.33;;;;;;;;;;5009680;28;38808;-79
2021/05/23 01:48:14;;;;;;;26.67;23.38;;;;;;;;;;4990965;28;39166;-79
2021/05/23 01:50:41;;;;;;;25.35;22.67;;;;;;;;;;4992040;28;37218;-78
2021/05/23 01:53:07;;;;;;;32.05;26.05;;;;;;;;;;5011667;28;40161;-78
2021/05/23 01:55:34;;;;;;;33.30;25.15;;;;;;;;;;5012418;28;39328;-78
2021/05/23 01:58:00;;;;;;;32.15;25.40;;;;;;;;;;5014852;28;38562;-79
2021/05/23 02:00:29;;;;;;;31.15;26.13;;;;;;;;;;5011519;28;48120;-78
2021/05/23 02:02:56;;;;;;;30.77;26.02;;;;;;;;;;4994453;28;40262;-78
2021/05/23 02:05:22;;;;;;;41.10;28.00;;;;;;;;;;4973658;28;39346;-79
2021/05/23 02:07:49;;;;;;;29.77;25.90;;;;;;;;;;4977245;28;38691;-79
2021/05/23 02:10:17;;;;;;;34.53;26.65;;;;;;;;;;4976172;28;37818;-78
2021/05/23 02:12:45;;;;;;;31.83;25.50;;;;;;;;;;4976481;28;37749;-79
2021/05/23 02:15:13;;;;;;;33.00;27.23;;;;;;;;;;4976707;28;37855;-78
2021/05/23 02:17:41;;;;;;;34.22;26.85;;;;;;;;;;4981896;28;40272;-78
2021/05/23 02:20:08;;;;;;;33.90;27.50;;;;;;;;;;5002726;28;38217;-79
2021/05/23 02:22:39;;;;;;;38.40;28.20;;;;;;;;;;4999820;28;37655;-78
2021/05/23 02:25:06;;;;;;;33.53;26.58;;;;;;;;;;5015939;28;39375;-78
2021/05/23 02:27:43;;;;;;;32.70;25.55;;;;;;;;;;5017463;28;38731;-79
2021/05/23 02:30:30;;;;;;;48.92;30.20;;;;;;;;;;4997385;28;37529;-78
2021/05/23 02:32:57;;;;;;;32.20;24.48;;;;;;;;;;5017309;28;38971;-79
2021/05/23 02:35:25;;;;;;;37.70;25.80;;;;;;;;;;4992562;28;38910;-79
2021/05/23 02:37:52;;;;;;;29.63;23.27;;;;;;;;;;4998903;28;38961;-80
2021/05/23 02:40:20;;;;;;;28.65;19.85;;;;;;;;;;4978389;28;39103;-77
2021/05/23 02:42:47;;;;;;;32.60;22.48;;;;;;;;;;4996392;28;39404;-78
2021/05/23 02:45:15;;;;;;;39.17;23.80;;;;;;;;;;4997290;28;39126;-79
2021/05/23 02:47:41;;;;;;;32.22;20.83;;;;;;;;;;4979244;28;37740;-79
2021/05/23 02:50:10;;;;;;;30.15;20.55;;;;;;;;;;4989033;28;35537;-79
2021/05/23 02:52:36;;;;;;;40.00;25.98;;;;;;;;;;5019345;28;39021;-78
2021/05/23 02:55:06;;;;;;;32.03;21.75;;;;;;;;;;5015247;28;37827;-78
2021/05/23 02:57:36;;;;;;;46.13;26.48;;;;;;;;;;5011039;28;47698;-79
2021/05/23 03:00:06;;;;;;;34.92;24.95;;;;;;;;;;5016949;28;37358;-79
2021/05/23 03:02:33;;;;;;;40.75;25.42;;;;;;;;;;4999540;28;47091;-79
2021/05/23 03:04:59;;;;;;;40.63;24.25;;;;;;;;;;5018430;28;39564;-79
2021/05/23 03:07:26;;;;;;;51.85;28.85;;;;;;;;;;4995169;28;39404;-78
2021/05/23 03:09:52;;;;;;;42.47;26.33;;;;;;;;;;4990421;28;36885;-79
2021/05/23 03:12:18;;;;;;;47.38;28.88;;;;;;;;;;5016934;28;39570;-79
2021/05/23 03:14:45;;;;;;;42.83;27.02;;;;;;;;;;5017056;28;38666;-78
2021/05/23 03:17:12;;;;;;;48.30;31.45;;;;;;;;;;4998127;28;38893;-78
2021/05/23 03:19:38;;;;;;;51.67;32.25;;;;;;;;;;5003051;28;37151;-79
2021/05/23 03:22:06;;;;;;;36.65;27.00;;;;;;;;;;5019083;28;40596;-79
2021/05/23 03:24:33;;;;;;;59.92;35.78;;;;;;;;;;5035994;28;39825;-79
2021/05/23 03:26:59;;;;;;;44.28;31.00;;;;;;;;;;5007445;28;37640;-79
2021/05/23 03:29:26;;;;;;;59.03;36.03;;;;;;;;;;5017301;28;36820;-78
2021/05/23 03:31:52;;;;;;;41.33;30.38;;;;;;;;;;4999714;28;39949;-79
2021/05/23 03:34:18;;;;;;;40.20;28.75;;;;;;;;;;5015809;28;39278;-79
2021/05/23 03:36:45;;;;;;;35.10;29.02;;;;;;;;;;4999284;28;39150;-79
2021/05/23 03:39:11;;;;;;;36.95;28.42;;;;;;;;;;5017288;28;37208;-79
2021/05/23 03:41:38;;;;;;;37.42;27.33;;;;;;;;;;5000502;28;39808;-79
2021/05/23 03:44:04;;;;;;;35.47;26.02;;;;;;;;;;4979779;28;39556;-79
2021/05/23 03:46:30;;;;;;;46.40;29.08;;;;;;;;;;4981004;28;38665;-79
2021/05/23 03:48:57;;;;;;;34.47;25.00;;;;;;;;;;4982538;28;36118;-78
2021/05/23 03:51:23;;;;;;;39.10;23.23;;;;;;;;;;4960471;28;39836;-79
2021/05/23 03:53:50;;;;;;;40.95;24.40;;;;;;;;;;4962128;28;37591;-80
2021/05/23 03:56:16;;;;;;;34.15;21.52;;;;;;;;;;4965282;28;39394;-79
2021/05/23 03:58:42;;;;;;;29.88;17.77;;;;;;;;;;5001174;28;37842;-80
2021/05/23 04:01:09;;;;;;;32.38;17.42;;;;;;;;;;4983394;28;38072;-79
2021/05/23 04:03:35;;;;;;;33.35;16.20;;;;;;;;;;4984483;28;39941;-80
2021/05/23 04:06:02;;;;;;;28.42;15.85;;;;;;;;;;4985640;28;37769;-79
2021/05/23 04:08:28;;;;;;;23.95;14.15;;;;;;;;;;5004525;28;48962;-79
2021/05/23 04:11:02;;;;;;;27.77;14.45;;;;;;;;;;4987754;28;40588;-80
2021/05/23 04:13:30;;;;;;;34.53;15.68;;;;;;;;;;4988030;28;47634;-80
2021/05/23 04:15:57;;;;;;;31.67;16.63;;;;;;;;;;4988341;28;38890;-79
2021/05/23 04:18:23;;;;;;;31.17;17.48;;;;;;;;;;5006642;28;37807;-79
2021/05/23 04:20:49;;;;;;;44.60;19.87;;;;;;;;;;5021494;28;40307;-79
2021/05/23 04:23:16;;;;;;;49.40;23.90;;;;;;;;;;5031119;28;38834;-79
2021/05/23 04:25:42;;;;;;;36.67;19.23;;;;;;;;;;5031029;28;39453;-79
2021/05/23 04:28:09;;;;;;;36.80;19.33;;;;;;;;;;5013875;28;37901;-79
2021/05/23 04:30:35;;;;;;;42.90;17.05;;;;;;;;;;5031394;28;40188;-80
2021/05/23 04:33:03;;;;;;;32.67;15.63;;;;;;;;;;5014791;28;38654;-80
2021/05/23 04:35:29;;;;;;;36.67;15.47;;;;;;;;;;4999942;28;41648;-79
2021/05/23 04:38:00;;;;;;;31.30;14.60;;;;;;;;;;4995507;28;37771;-80
2021/05/23 04:40:27;;;;;;;24.30;10.65;;;;;;;;;;5010774;28;39525;-79
2021/05/23 04:42:53;;;;;;;24.00;10.32;;;;;;;;;;4994900;28;37885;-79
2021/05/23 04:45:20;;;;;;;22.52;9.25;;;;;;;;;;4993022;28;37743;-79
2021/05/23 04:47:46;;;;;;;28.43;10.43;;;;;;;;;;4994382;28;36532;-79
2021/05/23 04:50:13;;;;;;;26.67;9.77;;;;;;;;;;4992719;28;39033;-79
2021/05/23 04:52:39;;;;;;;27.20;8.60;;;;;;;;;;4989968;28;38893;-79
2021/05/23 04:55:07;;;;;;;23.02;9.73;;;;;;;;;;4982888;28;39874;-79
2021/05/23 04:57:33;;;;;;;22.65;8.25;;;;;;;;;;4987052;28;35839;-79
2021/05/23 05:00:00;;;;;;;23.17;8.50;;;;;;;;;;4994199;28;39975;-79
2021/05/23 05:02:26;;;;;;;21.13;8.50;;;;;;;;;;4992553;28;38701;-79
2021/05/23 05:04:52;;;;;;;24.10;7.40;;;;;;;;;;5010513;28;39243;-80
2021/05/23 05:07:19;;;;;;;24.02;6.93;;;;;;;;;;4992585;28;36736;-79
2021/05/23 05:09:45;;;;;;;21.83;6.40;;;;;;;;;;4991300;28;38682;-79
2021/05/23 05:12:12;;;;;;;27.90;6.93;;;;;;;;;;4989806;28;39354;-79
2021/05/23 05:14:38;;;;;;;22.90;5.95;;;;;;;;;;4970903;28;37554;-79
2021/05/23 05:17:04;;;;;;;19.17;6.53;;;;;;;;;;4987017;28;37479;-79
2021/05/23 05:19:31;;;;;;;15.45;6.28;;;;;;;;;;4973413;28;39163;-79
2021/05/23 05:21:57;;;;;;;22.95;6.00;;;;;;;;;;4991151;28;40618;-79
2021/05/23 05:24:24;;;;;;;18.77;6.30;;;;;;;;;;4971050;28;37471;-79
2021/05/23 05:26:50;;;;;;;23.75;6.30;;;;;;;;;;4968953;28;36772;-80
2021/05/23 05:29:17;;;;;;;22.70;5.90;;;;;;;;;;4970961;28;38904;-79
2021/05/23 05:31:44;;;;;;;16.15;5.30;;;;;;;;;;4987730;28;40337;-79
2021/05/23 05:34:10;;;;;;;20.13;5.03;;;;;;;;;;4968507;28;39262;-78
2021/05/23 05:36:36;;;;;;;20.05;5.28;;;;;;;;;;4975850;28;37666;-78
2021/05/23 05:39:04;;;;;;;17.90;4.40;;;;;;;;;;5007195;28;40316;-78
2021/05/23 05:41:30;;;;;;;19.55;4.97;;;;;;;;;;5005687;28;40072;-79
2021/05/23 05:43:57;;;;;;;14.85;4.40;;;;;;;;;;5023393;28;39086;-79
2021/05/23 05:46:23;;;;;;;19.23;4.65;;;;;;;;;;5005903;28;36751;-79
2021/05/23 05:48:49;;;;;;;16.15;4.30;;;;;;;;;;5025251;28;40164;-79
2021/05/23 05:51:16;;;;;;;16.23;4.28;;;;;;;;;;5004633;28;39843;-78
2021/05/23 05:53:42;;;;;;;16.58;3.92;;;;;;;;;;5007600;28;39032;-78
2021/05/23 05:56:09;;;;;;;19.95;4.50;;;;;;;;;;5008293;28;38166;-78
2021/05/23 05:58:35;;;;;;;16.48;4.07;;;;;;;;;;5010572;28;38016;-79
2021/05/23 06:01:02;;;;;;;17.30;3.80;;;;;;;;;;5006220;28;37290;-78
2021/05/23 06:03:29;;;;;;;15.15;4.53;;;;;;;;;;5015601;28;39439;-78
2021/05/23 06:05:55;;;;;;;17.15;3.40;;;;;;;;;;5014599;28;36917;-78
2021/05/23 06:08:21;;;;;;;17.60;4.15;;;;;;;;;;4997250;28;41003;-78
2021/05/23 06:10:48;;;;;;;16.80;3.78;;;;;;;;;;5013879;28;38702;-78
2021/05/23 06:13:15;;;;;;;17.60;3.85;;;;;;;;;;4997014;28;39130;-77
2021/05/23 06:15:41;;;;;;;14.93;3.67;;;;;;;;;;4986564;28;38038;-78
2021/05/23 06:18:08;;;;;;;16.15;3.40;;;;;;;;;;4983189;28;37580;-79
2021/05/23 06:20:34;;;;;;;13.90;3.28;;;;;;;;;;4996018;28;37835;-79
2021/05/23 06:23:00;;;;;;;19.67;3.50;;;;;;;;;;5017640;28;40350;-80
2021/05/23 06:25:27;;;;;;;19.10;4.03;;;;;;;;;;4985776;28;38611;-79
2021/05/23 06:27:53;;;;;;;19.75;3.85;;;;;;;;;;5014796;28;39133;-78
2021/05/23 06:30:20;;;;;;;12.15;3.25;;;;;;;;;;5013105;28;39295;-79
2021/05/23 06:32:46;;;;;;;18.20;3.92;;;;;;;;;;4994844;28;39112;-78
2021/05/23 06:35:14;;;;;;;15.55;3.75;;;;;;;;;;4991993;28;36733;-78
2021/05/23 06:37:40;;;;;;;17.92;3.92;;;;;;;;;;5014306;28;39794;-79
2021/05/23 06:40:08;;;;;;;14.98;3.60;;;;;;;;;;4994084;28;40483;-78
2021/05/23 06:42:34;;;;;;;19.58;4.35;;;;;;;;;;4995385;28;38910;-79
2021/05/23 06:45:00;;;;;;;12.32;3.05;;;;;;;;;;4993912;28;37332;-78
2021/05/23 06:47:27;;;;;;;13.90;3.47;;;;;;;;;;5010323;28;46828;-79
2021/05/23 06:49:53;;;;;;;12.93;3.15;;;;;;;;;;4994991;28;40617;-79
2021/05/23 06:52:20;;;;;;;15.32;3.63;;;;;;;;;;5013104;28;38689;-78
2021/05/23 06:54:46;;;;;;;17.95;3.50;;;;;;;;;;4993884;28;35232;-78
2021/05/23 06:57:12;;;;;;;11.13;2.33;;;;;;;;;;4993952;28;39747;-78
2021/05/23 06:59:39;;;;;;;11.30;2.70;;;;;;;;;;5013933;28;39921;-79
2021/05/23 07:02:05;;;;;;;11.45;2.50;;;;;;;;;;5010621;28;39350;-78
2021/05/23 07:04:31;;;;;;;10.10;3.35;;;;;;;;;;4995797;28;38388;-79
2021/05/23 07:06:58;;;;;;;12.75;2.90;;;;;;;;;;5012453;28;40655;-79
2021/05/23 07:09:24;;;;;;;6.97;2.63;;;;;;;;;;4995558;28;40026;-78
2021/05/23 07:11:50;;;;;;;9.35;2.30;;;;;;;;;;4995736;28;38842;-79
2021/05/23 07:14:17;;;;;;;6.35;2.03;;;;;;;;;;4995338;28;38725;-79
2021/05/23 07:16:43;;;;;;;8.23;1.90;;;;;;;;;;4991141;28;41008;-79
2021/05/23 07:19:10;;;;;;;3.95;1.33;;;;;;;;;;4975411;28;39163;-78
2021/05/23 07:21:36;;;;;;;6.45;1.15;;;;;;;;;;5010601;28;40487;-78
2021/05/23 07:24:03;;;;;;;5.05;1.17;;;;;;;;;;5029142;28;37700;-78
2021/05/23 07:26:29;;;;;;;3.00;1.23;;;;;;;;;;5011877;28;38927;-78
2021/05/23 07:28:55;;;;;;;3.47;0.88;;;;;;;;;;5009692;28;39535;-78
2021/05/23 07:31:22;;;;;;;3.80;1.40;;;;;;;;;;5011646;28;38855;-78
2021/05/23 07:33:48;;;;;;;7.07;1.30;;;;;;;;;;5011810;28;36264;-78
2021/05/23 07:36:15;;;;;;;3.88;1.48;;;;;;;;;;5010993;28;38899;-79
2021/05/23 07:38:41;;;;;;;6.75;1.88;;;;;;;;;;5011769;28;39801;-78
2021/05/23 07:41:08;;;;;;;6.72;1.30;;;;;;;;;;5011452;28;38893;-78
2021/05/23 07:43:34;;;;;;;5.32;1.80;;;;;;;;;;5014455;28;37190;-78
2021/05/23 07:46:00;;;;;;;9.30;2.17;;;;;;;;;;4995242;28;37808;-79
2021/05/23 07:48:27;;;;;;;7.75;1.40;;;;;;;;;;5012805;28;38872;-79
2021/05/23 07:50:53;;;;;;;6.30;1.60;;;;;;;;;;5012016;28;39597;-79
2021/05/23 07:53:20;;;;;;;10.43;2.03;;;;;;;;;;5013716;28;37009;-78
2021/05/23 07:55:47;;;;;;;7.35;1.60;;;;;;;;;;4994025;28;39852;-79
2021/05/23 07:58:13;;;;;;;9.80;1.90;;;;;;;;;;4993005;28;39417;-79
2021/05/23 08:00:40;;;;;;;9.27;1.98;;;;;;;;;;5011319;28;39627;-79
2021/05/23 08:03:06;;;;;;;11.80;2.85;;;;;;;;;;5010200;28;35801;-78
2021/05/23 08:05:33;;;;;;;7.47;2.00;;;;;;;;;;5011142;28;38404;-79
2021/05/23 08:07:59;;;;;;;9.10;2.13;;;;;;;;;;4993918;28;41708;-78
2021/05/23 08:10:27;;;;;;;16.67;2.38;;;;;;;;;;5011473;28;38838;-79
2021/05/23 08:12:53;;;;;;;6.93;1.67;;;;;;;;;;4994930;28;38017;-79
2021/05/23 08:15:20;;;;;;;8.30;1.83;;;;;;;;;;4991273;28;39647;-79
2021/05/23 08:17:47;;;;;;;11.63;2.30;;;;;;;;;;5010953;28;39722;-79
2021/05/23 08:20:14;;;;;;;12.20;2.10;;;;;;;;;;5017268;28;38912;-79
2021/05/23 08:22:41;;;;;;;6.03;1.63;;;;;;;;;;5013683;28;36314;-79
2021/05/23 08:25:07;;;;;;;6.63;1.80;;;;;;;;;;5017951;28;39373;-78
2021/05/23 08:27:34;;;;;;;6.95;2.13;;;;;;;;;;4994134;28;39909;-78
2021/05/23 08:30:01;;;;;;;11.80;2.20;;;;;;;;;;5011423;28;39623;-79
2021/05/23 08:32:27;;;;;;;7.22;2.08;;;;;;;;;;5009500;28;36878;-79
2021/05/23 08:34:53;;;;;;;6.05;1.67;;;;;;;;;;4992734;28;40724;-79
2021/05/23 08:37:20;;;;;;;7.82;2.00;;;;;;;;;;4991098;28;37752;-78
2021/05/23 08:39:47;;;;;;;9.52;2.10;;;;;;;;;;4991040;28;37664;-78
2021/05/23 08:42:13;;;;;;;7.55;1.85;;;;;;;;;;5010146;28;36835;-79
2021/05/23 08:44:41;;;;;;;7.85;2.00;;;;;;;;;;5009392;28;40046;-78
2021/05/23 08:47:07;;;;;;;11.27;2.25;;;;;;;;;;4989338;28;39391;-79
2021/05/23 08:49:34;;;;;;;11.38;3.03;;;;;;;;;;4990086;28;37476;-78
2021/05/23 08:52:00;;;;;;;7.95;2.28;;;;;;;;;;4990353;28;36684;-78
2021/05/23 08:54:28;;;;;;;13.38;2.90;;;;;;;;;;4986546;28;41402;-78
2021/05/23 08:56:54;;;;;;;9.60;2.05;;;;;;;;;;5003057;28;38662;-79
2021/05/23 08:59:21;;;;;;;6.53;1.77;;;;;;;;;;5008724;28;39571;-78
2021/05/23 09:01:48;;;;;;;8.45;2.00;;;;;;;;;;4989243;28;37808;-78
2021/05/23 09:04:16;;;;;;;4.65;1.40;;;;;;;;;;4972324;28;39429;-78
2021/05/23 09:06:42;;;;;;;8.20;1.88;;;;;;;;;;4995688;28;39221;-79
2021/05/23 09:09:10;;;;;;;4.38;1.60;;;;;;;;;;5006831;28;38942;-79
2021/05/23 09:11:36;;;;;;;7.78;1.63;;;;;;;;;;5006081;28;37197;-78
2021/05/23 09:14:06;;;;;;;9.35;1.85;;;;;;;;;;5007483;28;40494;-78
2021/05/23 09:16:42;;;;;;;6.53;1.70;;;;;;;;;;5007153;28;39736;-78
2021/05/23 09:19:09;;;;;;;6.95;1.65;;;;;;;;;;5007825;28;40210;-78
2021/05/23 09:21:36;;;;;;;7.75;1.73;;;;;;;;;;5026855;28;37148;-78
2021/05/23 09:24:04;;;;;;;6.13;1.50;;;;;;;;;;4987793;28;39659;-78
2021/05/23 09:26:39;;;;;;;5.50;1.30;;;;;;;;;;4986121;28;39632;-78
2021/05/23 09:29:14;;;;;;;7.13;1.13;;;;;;;;;;4971065;28;37665;-78
2021/05/23 09:31:41;;;;;;;4.95;1.17;;;;;;;;;;4988659;28;36997;-78
2021/05/23 09:34:08;;;;;;;4.60;0.80;;;;;;;;;;4989469;28;39117;-79
2021/05/23 09:36:47;;;;;;;9.65;1.35;;;;;;;;;;4989158;28;39244;-78
2021/05/23 09:39:14;;;;;;;8.30;1.45;;;;;;;;;;4971986;28;38677;-78
2021/05/23 09:41:40;;;;;;;4.20;1.08;;;;;;;;;;4987275;28;37251;-78
2021/05/23 09:44:10;;;;;;;4.07;1.00;;;;;;;;;;5007089;28;40772;-78
2021/05/23 09:46:36;;;;;;;6.53;1.17;;;;;;;;;;5006209;28;39244;-79
2021/05/23 09:49:03;;;;;;;6.28;1.20;;;;;;;;;;5007998;28;39566;-78
2021/05/23 09:51:30;;;;;;;4.22;0.98;;;;;;;;;;5009161;28;37918;-78
2021/05/23 09:53:59;;;;;;;2.35;0.80;;;;;;;;;;5008437;28;40215;-78
2021/05/23 09:56:33;;;;;;;5.95;1.05;;;;;;;;;;5006682;28;39705;-78
2021/05/23 09:58:59;;;;;;;3.97;0.93;;;;;;;;;;4971523;28;40169;-78
2021/05/23 10:01:31;;;;;;;5.18;1.17;;;;;;;;;;4969047;28;37524;-78
2021/05/23 10:03:58;;;;;;;2.95;1.00;;;;;;;;;;4969922;28;40305;-78
2021/05/23 10:06:28;;;;;;;4.55;1.08;;;;;;;;;;4969601;28;39120;-77
2021/05/23 10:08:55;;;;;;;4.63;0.75;;;;;;;;;;4988924;28;39718;-78
2021/05/23 10:11:21;;;;;;;4.47;0.93;;;;;;;;;;4969556;28;37807;-77
2021/05/23 10:13:48;;;;;;;3.22;0.77;;;;;;;;;;4989519;28;39965;-78
2021/05/23 10:16:14;;;;;;;3.80;1.02;;;;;;;;;;5004221;28;39364;-78
2021/05/23 10:18:41;;;;;;;4.07;1.02;;;;;;;;;;5005793;28;39383;-77
2021/05/23 10:21:08;;;;;;;6.10;1.20;;;;;;;;;;5022390;28;37893;-78
2021/05/23 10:23:37;;;;;;;5.90;1.02;;;;;;;;;;5002444;28;39758;-78
2021/05/23 10:26:08;;;;;;;7.43;1.23;;;;;;;;;;5006041;28;39467;-78
2021/05/23 10:28:42;;;;;;;4.20;0.90;;;;;;;;;;4990042;28;38995;-78
2021/05/23 10:31:09;;;;;;;4.15;1.15;;;;;;;;;;5006423;28;36808;-77
2021/05/23 10:33:36;;;;;;;3.55;0.90;;;;;;;;;;4989482;28;41129;-78
2021/05/23 10:36:05;;;;;;;3.35;1.20;;;;;;;;;;5009634;28;38466;-78
2021/05/23 10:38:32;;;;;;;4.00;1.20;;;;;;;;;;4993896;28;39315;-78
2021/05/23 10:40:59;;;;;;;2.90;0.80;;;;;;;;;;4992173;28;38640;-78
2021/05/23 10:43:30;;;;;;;5.07;1.02;;;;;;;;;;4993220;28;37839;-78
2021/05/23 10:46:26;;;;;;;5.05;1.23;;;;;;;;;;4993279;28;40646;-78
2021/05/23 10:48:56;;;;;;;5.20;1.05;;;;;;;;;;4980690;28;47053;-78
2021/05/23 10:51:22;;;;;;;6.60;1.02;;;;;;;;;;5010569;28;37139;-78
2021/05/23 10:53:49;;;;;;;2.40;0.75;;;;;;;;;;4993650;28;39917;-78
2021/05/23 10:56:21;;;;;;;4.28;1.10;;;;;;;;;;5010461;28;39004;-78
2021/05/23 10:58:56;;;;;;;4.03;1.48;;;;;;;;;;5011174;28;39519;-78
2021/05/23 11:01:41;;;;;;;4.40;1.17;;;;;;;;;;4990120;28;37698;-78
2021/05/23 11:04:08;;;;;;;4.68;0.77;;;;;;;;;;4992540;28;39888;-78
2021/05/23 11:06:35;;;;;;;4.43;0.90;;;;;;;;;;4976387;28;39754;-78
2021/05/23 11:09:09;;;;;;;5.00;1.10;;;;;;;;;;4973293;28;39110;-78
2021/05/23 11:11:35;;;;;;;4.07;0.82;;;;;;;;;;4991336;28;49200;-77
2021/05/23 11:14:14;;;;;;;4.53;0.95;;;;;;;;;;4972001;28;39597;-78
2021/05/23 11:16:48;;;;;;;5.72;1.17;;;;;;;;;;4970850;28;47179;-77
2021/05/23 11:19:14;;;;;;;2.72;0.70;;;;;;;;;;4990743;28;38578;-78
2021/05/23 11:21:42;;;;;;;4.28;1.30;;;;;;;;;;5009706;28;37537;-78
2021/05/23 11:24:09;;;;;;;5.97;1.10;;;;;;;;;;5008975;28;37678;-78
2021/05/23 11:26:36;;;;;;;3.45;0.90;;;;;;;;;;5008949;28;37869;-78
2021/05/23 11:29:03;;;;;;;5.45;0.95;;;;;;;;;;4992478;28;37384;-78
2021/05/23 11:31:30;;;;;;;8.32;1.10;;;;;;;;;;4991151;28;47562;-78
2021/05/23 11:33:56;;;;;;;7.68;1.23;;;;;;;;;;5010111;28;38759;-78
2021/05/23 11:36:27;;;;;;;1.98;0.80;;;;;;;;;;5008306;28;39114;-78
2021/05/23 11:38:57;;;;;;;8.00;1.60;;;;;;;;;;5011474;28;39135;-78
2021/05/23 11:41:34;;;;;;;5.68;1.02;;;;;;;;;;5008877;28;37931;-78
2021/05/23 11:44:01;;;;;;;3.92;0.75;;;;;;;;;;5010320;28;39065;-79
2021/05/23 11:46:28;;;;;;;4.35;0.88;;;;;;;;;;5008265;28;39862;-78
2021/05/23 11:48:56;;;;;;;5.03;0.98;;;;;;;;;;5007936;28;40505;-78
2021/05/23 11:51:24;;;;;;;3.58;1.10;;;;;;;;;;5008221;28;35925;-79
2021/05/23 11:53:52;;;;;;;4.78;1.00;;;;;;;;;;5010449;28;39223;-79
2021/05/23 11:56:20;;;;;;;5.05;1.00;;;;;;;;;;4989019;28;40200;-79
2021/05/23 11:58:46;;;;;;;5.00;1.52;;;;;;;;;;4992718;28;39690;-79
2021/05/23 12:01:17;;;;;;;5.28;1.35;;;;;;;;;;4991273;28;37417;-79
2021/05/23 12:03:54;;;;;;;4.13;1.17;;;;;;;;;;5009889;28;39142;-79
2021/05/23 12:06:20;;;;;;;4.25;1.00;;;;;;;;;;5009401;28;39077;-78
2021/05/23 12:08:46;;;;;;;6.55;1.38;;;;;;;;;;4991702;28;39211;-79
2021/05/23 12:11:13;;;;;;;4.75;1.33;;;;;;;;;;5008159;28;36575;-79
2021/05/23 12:13:46;;;;;;;5.45;0.80;;;;;;;;;;5010364;28;40576;-79
2021/05/23 12:16:14;;;;;;;5.47;1.10;;;;;;;;;;5006382;28;40350;-79
2021/05/23 12:18:44;;;;;;;5.38;1.02;;;;;;;;;;4991367;28;39419;-79
2021/05/23 12:21:14;;;;;;;8.80;1.33;;;;;;;;;;4990548;28;35813;-79
2021/05/23 12:23:45;;;;;;;6.85;1.27;;;;;;;;;;5008740;28;39499;-80
2021/05/23 12:26:12;;;;;;;5.50;1.13;;;;;;;;;;4990391;28;39176;-79
2021/05/23 12:28:42;;;;;;;4.18;0.95;;;;;;;;;;5009578;28;38700;-79
2021/05/23 12:31:10;;;;;;;4.70;1.30;;;;;;;;;;4988855;28;37201;-78
2021/05/23 12:33:37;;;;;;;7.05;1.70;;;;;;;;;;4991598;28;39582;-79
2021/05/23 12:36:12;;;;;;;6.00;1.40;;;;;;;;;;5008227;28;38836;-79
2021/05/23 12:38:53;;;;;;;6.30;1.20;;;;;;;;;;4989339;28;39309;-79
2021/05/23 12:41:19;;;;;;;5.05;0.93;;;;;;;;;;5008541;28;36759;-79
2021/05/23 12:43:45;;;;;;;4.57;1.35;;;;;;;;;;5008697;28;38870;-79
2021/05/23 12:46:14;;;;;;;7.32;1.30;;;;;;;;;;4989304;28;40524;-79
2021/05/23 12:48:41;;;;;;;6.22;1.50;;;;;;;;;;4989821;28;38839;-78
2021/05/23 12:51:16;;;;;;;7.32;2.47;;;;;;;;;;5007592;28;37745;-78
2021/05/23 12:53:44;;;;;;;5.32;1.33;;;;;;;;;;5008011;28;39117;-79
2021/05/23 12:56:15;;;;;;;4.63;1.40;;;;;;;;;;4987648;28;39408;-79
2021/05/23 12:58:43;;;;;;;5.65;1.60;;;;;;;;;;4969909;28;39390;-79
2021/05/23 13:01:16;;;;;;;8.52;1.80;;;;;;;;;;4970193;28;37832;-78
2021/05/23 13:03:49;;;;;;;4.53;1.35;;;;;;;;;;4972178;28;39293;-78
2021/05/23 13:06:15;;;;;;;7.05;1.70;;;;;;;;;;4986261;28;39073;-78
2021/05/23 13:08:41;;;;;;;4.00;1.13;;;;;;;;;;4972174;28;39044;-78
2021/05/23 13:11:17;;;;;;;4.10;1.30;;;;;;;;;;4988456;28;36596;-77
2021/05/23 13:13:44;;;;;;;4.10;1.40;;;;;;;;;;4971291;28;38072;-78
2021/05/23 13:16:10;;;;;;;5.93;1.45;;;;;;;;;;4970272;28;37919;-78
2021/05/23 13:18:40;;;;;;;5.50;1.73;;;;;;;;;;4972461;28;38857;-79
2021/05/23 13:21:20;;;;;;;5.22;1.42;;;;;;;;;;4994129;28;35645;-79
2021/05/23 13:23:48;;;;;;;6.55;1.85;;;;;;;;;;5008230;28;39677;-79
2021/05/23 13:26:18;;;;;;;8.05;1.65;;;;;;;;;;5006019;28;38764;-79
2021/05/23 13:28:45;;;;;;;4.07;1.10;;;;;;;;;;5006358;28;39067;-79
2021/05/23 13:31:12;;;;;;;6.28;1.40;;;;;;;;;;5007372;28;38021;-80
2021/05/23 13:33:41;;;;;;;5.85;1.67;;;;;;;;;;5007293;28;39644;-79
2021/05/23 13:36:08;;;;;;;6.03;1.67;;;;;;;;;;5004661;28;40659;-79
2021/05/23 13:38:35;;;;;;;7.72;1.38;;;;;;;;;;5008973;28;38785;-79
2021/05/23 13:41:01;;;;;;;5.82;1.02;;;;;;;;;;5007617;28;37636;-79
2021/05/23 13:43:28;;;;;;;3.75;1.00;;;;;;;;;;4990523;28;47174;-79
2021/05/23 13:45:54;;;;;;;5.18;1.30;;;;;;;;;;5006953;28;40401;-79
2021/05/23 13:48:21;;;;;;;5.88;1.30;;;;;;;;;;5006586;28;38255;-79
2021/05/23 13:50:48;;;;;;;4.18;1.00;;;;;;;;;;5008043;28;38135;-77
2021/05/23 13:53:15;;;;;;;3.22;0.90;;;;;;;;;;5007432;28;39561;-81
2021/05/23 13:55:41;;;;;;;4.68;1.00;;;;;;;;;;5006519;28;39694;-78
2021/05/23 13:58:08;;;;;;;4.07;0.70;;;;;;;;;;5006327;28;39258;-77
2021/05/23 14:00:35;;;;;;;5.55;0.90;;;;;;;;;;4979209;28;36966;-77
2021/05/23 14:03:14;;;;;;;4.85;0.90;;;;;;;;;;4970226;28;39862;-77
2021/05/23 14:05:41;;;;;;;5.05;1.45;;;;;;;;;;4987152;28;49132;-78
2021/05/23 14:08:07;;;;;;;3.90;0.93;;;;;;;;;;4970268;28;40252;-78
2021/05/23 14:10:37;;;;;;;4.68;0.82;;;;;;;;;;4988046;28;37684;-79
2021/05/23 14:13:04;;;;;;;4.30;1.10;;;;;;;;;;5004567;28;38483;-76
2021/05/23 14:15:30;;;;;;;4.43;0.82;;;;;;;;;;4993512;28;39170;-77
2021/05/23 14:17:56;;;;;;;4.93;0.90;;;;;;;;;;5012525;28;38414;-79
2021/05/23 14:20:25;;;;;;;4.13;0.82;;;;;;;;;;5002315;28;35725;-79
2021/05/23 14:22:52;;;;;;;5.45;1.05;;;;;;;;;;5015271;28;39903;-79
2021/05/23 14:25:18;;;;;;;2.60;0.70;;;;;;;;;;5030501;28;39696;-79
2021/05/23 14:27:44;;;;;;;8.23;1.10;;;;;;;;;;5013788;28;38871;-79
2021/05/23 14:30:11;;;;;;;5.78;0.80;;;;;;;;;;4996811;28;37824;-79
2021/05/23 14:32:38;;;;;;;2.65;0.93;;;;;;;;;;4993406;28;39434;-79
2021/05/23 14:35:04;;;;;;;7.00;1.38;;;;;;;;;;5010062;28;39101;-79
2021/05/23 14:37:31;;;;;;;3.78;0.85;;;;;;;;;;5009800;28;48760;-79